createdAt,value
2018-09-30T00:00:43.150Z,57.36
2018-09-30T00:03:10.049Z,56.67
2018-09-30T00:05:36.942Z,56.83
2018-09-30T00:08:03.874Z,57.47
2018-09-30T00:10:30.750Z,56.94
2018-09-30T00:12:57.648Z,57.25
2018-09-30T00:15:24.545Z,57.29
2018-09-30T00:17:51.462Z,56.77
2018-09-30T00:20:18.363Z,56.77
2018-09-30T00:22:45.266Z,57.20
2018-09-30T00:25:17.469Z,56.65
2018-09-30T00:27:44.366Z,57.54
2018-09-30T00:30:11.263Z,56.79
2018-09-30T00:32:38.157Z,57.49
2018-09-30T00:35:05.077Z,56.82
2018-09-30T00:37:31.968Z,57.16
2018-09-30T00:39:58.865Z,57.16
2018-09-30T00:42:25.789Z,56.67
2018-09-30T00:44:52.676Z,56.77
2018-09-30T00:47:19.562Z,56.90
2018-09-30T00:49:46.496Z,56.83
2018-09-30T00:52:13.414Z,57.40
2018-09-30T00:54:40.322Z,56.68
2018-09-30T00:57:07.205Z,57.35
2018-09-30T00:59:34.101Z,56.94
2018-09-30T01:02:00.996Z,56.83
2018-09-30T01:04:27.893Z,57.64
2018-09-30T01:06:54.850Z,57.42
2018-09-30T01:09:21.740Z,57.18
2018-09-30T01:11:48.660Z,57.37
2018-09-30T01:14:15.548Z,57.64
2018-09-30T01:16:42.432Z,57.19
2018-09-30T01:19:09.368Z,56.88
2018-09-30T01:21:36.701Z,57.53
2018-09-30T01:24:03.701Z,57.04
2018-09-30T01:26:30.836Z,57.02
2018-09-30T01:28:57.730Z,56.79
2018-09-30T01:31:24.629Z,57.07
2018-09-30T01:33:51.537Z,57.14
2018-09-30T01:36:18.420Z,57.50
2018-09-30T01:38:45.310Z,57.43
2018-09-30T01:41:12.206Z,57.07
2018-09-30T01:43:39.130Z,57.46
2018-09-30T01:46:06.026Z,57.57
2018-09-30T01:48:32.929Z,57.08
2018-09-30T01:50:59.824Z,56.76
2018-09-30T01:53:26.736Z,56.79
2018-09-30T01:55:53.629Z,57.70
2018-09-30T01:58:20.539Z,56.97
2018-09-30T02:00:47.437Z,56.94
2018-09-30T02:03:14.342Z,57.14
2018-09-30T02:05:41.266Z,57.03
2018-09-30T02:08:08.169Z,57.26
2018-09-30T02:10:35.083Z,57.38
2018-09-30T02:13:01.976Z,57.60
2018-09-30T02:15:28.876Z,57.35
2018-09-30T02:17:55.775Z,57.59
2018-09-30T02:20:22.669Z,57.48
2018-09-30T02:22:49.561Z,57.57
2018-09-30T02:25:16.449Z,57.49
2018-09-30T02:27:43.336Z,57.35
2018-09-30T02:30:10.239Z,57.72
2018-09-30T02:32:37.142Z,57.03
2018-09-30T02:35:04.029Z,57.44
2018-09-30T02:37:30.933Z,57.10
2018-09-30T02:39:57.843Z,57.74
2018-09-30T02:42:24.749Z,57.08
2018-09-30T02:44:51.656Z,57.71
2018-09-30T02:47:18.549Z,56.83
2018-09-30T02:49:45.442Z,56.96
2018-09-30T02:52:12.336Z,57.14
2018-09-30T02:54:39.234Z,57.51
2018-09-30T02:57:06.132Z,57.32
2018-09-30T02:59:33.020Z,57.05
2018-09-30T03:01:59.913Z,57.21
2018-09-30T03:04:26.796Z,57.57
2018-09-30T03:06:58.882Z,56.94
2018-09-30T03:09:25.784Z,56.94
2018-09-30T03:11:52.730Z,57.46
2018-09-30T03:14:19.631Z,57.69
2018-09-30T03:16:47.033Z,57.34
2018-09-30T03:19:14.296Z,56.97
2018-09-30T03:21:41.195Z,57.78
2018-09-30T03:24:08.093Z,57.60
2018-09-30T03:26:34.977Z,57.32
2018-09-30T03:29:01.935Z,56.91
2018-09-30T03:31:28.821Z,57.55
2018-09-30T03:33:55.699Z,57.82
2018-09-30T03:36:22.726Z,57.59
2018-09-30T03:38:49.625Z,57.86
2018-09-30T03:41:16.513Z,57.62
2018-09-30T03:43:43.397Z,56.93
2018-09-30T03:46:10.371Z,57.90
2018-09-30T03:48:37.285Z,57.96
2018-09-30T03:51:04.210Z,56.95
2018-09-30T03:53:31.207Z,57.02
2018-09-30T03:55:58.129Z,57.35
2018-09-30T03:58:25.101Z,57.15
2018-09-30T04:00:51.962Z,57.31
2018-09-30T04:03:19.198Z,57.62
2018-09-30T04:05:46.096Z,57.47
2018-09-30T04:08:13.010Z,57.04
2018-09-30T04:10:39.888Z,57.57
2018-09-30T04:13:06.777Z,57.45
2018-09-30T04:15:33.773Z,57.11
2018-09-30T04:18:00.693Z,57.48
2018-09-30T04:20:27.584Z,57.78
2018-09-30T04:22:54.505Z,57.33
2018-09-30T04:25:21.398Z,57.04
2018-09-30T04:27:48.284Z,57.03
2018-09-30T04:30:15.173Z,57.10
2018-09-30T04:32:42.080Z,57.12
2018-09-30T04:35:08.984Z,57.44
2018-09-30T04:37:35.874Z,57.53
2018-09-30T04:40:02.825Z,57.67
2018-09-30T04:42:29.721Z,57.36
2018-09-30T04:44:56.616Z,57.36
2018-09-30T04:47:23.517Z,57.78
2018-09-30T04:49:50.466Z,56.98
2018-09-30T04:52:17.323Z,57.17
2018-09-30T04:54:44.241Z,56.97
2018-09-30T04:57:11.129Z,57.10
2018-09-30T04:59:38.008Z,57.22
2018-09-30T05:02:04.906Z,57.71
2018-09-30T05:04:31.792Z,57.24
2018-09-30T05:06:58.715Z,57.03
2018-09-30T05:09:25.622Z,57.32
2018-09-30T05:11:52.517Z,57.57
2018-09-30T05:14:19.394Z,57.45
2018-09-30T05:16:46.284Z,56.87
2018-09-30T05:19:13.172Z,56.88
2018-09-30T05:21:40.058Z,56.95
2018-09-30T05:24:06.990Z,57.20
2018-09-30T05:26:33.881Z,57.80
2018-09-30T05:29:00.782Z,57.70
2018-09-30T05:31:27.678Z,56.96
2018-09-30T05:33:54.565Z,57.07
2018-09-30T05:36:21.458Z,57.36
2018-09-30T05:38:48.355Z,57.79
2018-09-30T05:41:15.254Z,57.95
2018-09-30T05:43:42.148Z,57.56
2018-09-30T05:46:09.065Z,57.50
2018-09-30T05:48:35.962Z,57.39
2018-09-30T05:51:02.848Z,57.50
2018-09-30T05:53:29.744Z,56.99
2018-09-30T05:55:56.633Z,56.82
2018-09-30T05:58:23.527Z,57.80
2018-09-30T06:00:50.429Z,57.37
2018-09-30T06:03:17.341Z,57.15
2018-09-30T06:05:44.228Z,57.74
2018-09-30T06:08:11.120Z,57.56
2018-09-30T06:10:38.018Z,57.52
2018-09-30T06:13:04.934Z,57.44
2018-09-30T06:15:31.846Z,57.40
2018-09-30T06:17:59.029Z,57.60
2018-09-30T06:20:25.925Z,56.96
2018-09-30T06:22:52.813Z,57.04
2018-09-30T06:25:19.720Z,56.84
2018-09-30T06:27:46.619Z,56.96
2018-09-30T06:30:13.521Z,57.22
2018-09-30T06:32:40.421Z,57.39
2018-09-30T06:35:07.310Z,57.56
2018-09-30T06:37:34.213Z,57.05
2018-09-30T06:40:01.128Z,56.86
2018-09-30T06:42:28.031Z,57.54
2018-09-30T06:44:54.952Z,57.17
2018-09-30T06:47:21.841Z,57.11
2018-09-30T06:49:48.852Z,57.66
2018-09-30T06:52:15.781Z,57.23
2018-09-30T06:54:42.687Z,56.94
2018-09-30T06:57:09.581Z,56.76
2018-09-30T06:59:36.482Z,57.16
2018-09-30T07:02:03.434Z,57.58
2018-09-30T07:04:30.369Z,57.48
2018-09-30T07:06:57.252Z,57.43
2018-09-30T07:09:24.185Z,57.57
2018-09-30T07:11:51.073Z,57.52
2018-09-30T07:14:17.964Z,56.69
2018-09-30T07:16:44.864Z,57.27
2018-09-30T07:19:11.778Z,56.94
2018-09-30T07:21:38.666Z,56.84
2018-09-30T07:24:05.560Z,57.75
2018-09-30T07:26:32.483Z,57.66
2018-09-30T07:28:59.388Z,57.16
2018-09-30T07:31:26.277Z,57.02
2018-09-30T07:33:53.202Z,57.65
2018-09-30T07:36:20.093Z,57.58
2018-09-30T07:38:46.977Z,57.27
2018-09-30T07:41:13.866Z,57.01
2018-09-30T07:43:40.844Z,56.79
2018-09-30T07:46:07.744Z,57.14
2018-09-30T07:48:34.641Z,57.82
2018-09-30T07:51:01.537Z,57.01
2018-09-30T07:53:28.421Z,57.00
2018-09-30T07:55:55.337Z,56.89
2018-09-30T07:58:22.214Z,57.43
2018-09-30T08:00:49.182Z,57.43
2018-09-30T08:03:16.077Z,56.98
2018-09-30T08:05:42.973Z,56.97
2018-09-30T08:08:09.861Z,56.98
2018-09-30T08:10:36.757Z,57.79
2018-09-30T08:13:03.640Z,56.86
2018-09-30T08:15:30.524Z,57.51
2018-09-30T08:17:57.413Z,57.61
2018-09-30T08:20:24.305Z,57.55
2018-09-30T08:22:51.230Z,57.42
2018-09-30T08:25:18.120Z,56.61
2018-09-30T08:27:45.018Z,57.58
2018-09-30T08:30:11.914Z,57.36
2018-09-30T08:32:38.818Z,57.61
2018-09-30T08:35:05.721Z,56.75
2018-09-30T08:37:37.956Z,57.65
2018-09-30T08:40:04.933Z,57.37
2018-09-30T08:42:31.819Z,56.65
2018-09-30T08:44:58.709Z,56.82
2018-09-30T08:47:25.702Z,56.70
2018-09-30T08:49:52.525Z,56.79
2018-09-30T08:52:19.408Z,57.39
2018-09-30T08:54:46.310Z,56.98
2018-09-30T08:57:13.200Z,57.36
2018-09-30T08:59:40.093Z,56.81
2018-09-30T09:02:07.002Z,57.34
2018-09-30T09:04:33.916Z,57.37
2018-09-30T09:07:00.812Z,56.82
2018-09-30T09:09:27.706Z,57.23
2018-09-30T09:11:54.594Z,56.85
2018-09-30T09:14:21.485Z,56.77
2018-09-30T09:16:48.381Z,56.69
2018-09-30T09:19:15.265Z,57.32
2018-09-30T09:21:42.145Z,57.20
2018-09-30T09:24:09.020Z,57.25
2018-09-30T09:26:35.933Z,56.46
2018-09-30T09:29:02.813Z,56.54
2018-09-30T09:31:29.719Z,57.10
2018-09-30T09:33:56.629Z,57.01
2018-09-30T09:36:23.504Z,56.54
2018-09-30T09:38:50.385Z,56.46
2018-09-30T09:41:17.274Z,56.42
2018-09-30T09:43:44.201Z,56.48
2018-09-30T09:46:11.089Z,56.80
2018-09-30T09:48:37.988Z,56.39
2018-09-30T09:51:05.134Z,56.72
2018-09-30T09:53:32.030Z,57.03
2018-09-30T09:55:58.936Z,56.95
2018-09-30T09:58:25.829Z,56.19
2018-09-30T10:00:52.718Z,56.27
2018-09-30T10:03:19.601Z,56.65
2018-09-30T10:05:46.488Z,56.26
2018-09-30T10:08:13.753Z,56.29
2018-09-30T10:10:40.669Z,56.78
2018-09-30T10:13:07.770Z,56.86
2018-09-30T10:15:34.633Z,56.72
2018-09-30T10:18:01.526Z,56.21
2018-09-30T10:20:28.573Z,56.39
2018-09-30T10:22:55.452Z,56.13
2018-09-30T10:25:22.336Z,56.73
2018-09-30T10:27:49.233Z,56.11
2018-09-30T10:30:16.122Z,55.92
2018-09-30T10:32:43.053Z,56.96
2018-09-30T10:35:09.940Z,56.58
2018-09-30T10:37:36.834Z,55.92
2018-09-30T10:40:03.739Z,56.32
2018-09-30T10:42:31.170Z,56.02
2018-09-30T10:44:58.052Z,55.95
2018-09-30T10:47:25.151Z,55.63
2018-09-30T10:49:52.050Z,56.40
2018-09-30T10:52:18.945Z,55.95
2018-09-30T10:54:45.866Z,55.93
2018-09-30T10:57:12.756Z,55.83
2018-09-30T10:59:39.646Z,55.71
2018-09-30T11:02:06.553Z,56.07
2018-09-30T11:04:33.432Z,56.48
2018-09-30T11:07:00.374Z,56.18
2018-09-30T11:09:27.336Z,55.52
2018-09-30T11:11:54.193Z,55.60
2018-09-30T11:14:21.082Z,56.21
2018-09-30T11:16:47.973Z,55.37
2018-09-30T11:19:14.860Z,55.48
2018-09-30T11:21:41.765Z,55.97
2018-09-30T11:24:08.667Z,55.47
2018-09-30T11:26:35.553Z,56.01
2018-09-30T11:29:02.459Z,55.52
2018-09-30T11:31:29.349Z,55.42
2018-09-30T11:33:56.248Z,55.26
2018-09-30T11:36:23.137Z,55.94
2018-09-30T11:38:50.016Z,55.32
2018-09-30T11:41:16.921Z,55.44
2018-09-30T11:43:43.814Z,55.28
2018-09-30T11:46:10.716Z,55.98
2018-09-30T11:48:37.638Z,55.35
2018-09-30T11:51:04.528Z,55.34
2018-09-30T11:53:31.410Z,55.13
2018-09-30T11:55:58.308Z,55.64
2018-09-30T11:58:25.209Z,55.26
2018-09-30T12:00:52.092Z,55.25
2018-09-30T12:03:18.986Z,55.19
2018-09-30T12:05:45.882Z,55.75
2018-09-30T12:08:12.772Z,55.10
2018-09-30T12:10:39.692Z,55.01
2018-09-30T12:13:06.594Z,54.86
2018-09-30T12:15:33.476Z,55.20
2018-09-30T12:18:00.353Z,54.86
2018-09-30T12:20:27.245Z,55.03
2018-09-30T12:22:54.157Z,55.71
2018-09-30T12:25:21.044Z,54.96
2018-09-30T12:27:47.928Z,55.07
2018-09-30T12:30:14.817Z,54.89
2018-09-30T12:32:41.705Z,55.51
2018-09-30T12:35:08.614Z,55.49
2018-09-30T12:37:35.501Z,54.83
2018-09-30T12:40:02.409Z,55.22
2018-09-30T12:42:29.301Z,55.00
2018-09-30T12:44:56.191Z,55.56
2018-09-30T12:47:23.153Z,55.63
2018-09-30T12:49:50.012Z,55.63
2018-09-30T12:52:16.903Z,54.87
2018-09-30T12:54:43.793Z,55.00
2018-09-30T12:57:10.686Z,55.10
2018-09-30T12:59:37.616Z,54.99
2018-09-30T13:02:04.522Z,54.96
2018-09-30T13:04:31.403Z,54.91
2018-09-30T13:06:58.293Z,55.33
2018-09-30T13:09:25.201Z,55.07
2018-09-30T13:11:52.105Z,55.40
2018-09-30T13:14:18.997Z,55.21
2018-09-30T13:16:45.904Z,55.39
2018-09-30T13:19:12.802Z,54.86
2018-09-30T13:21:39.690Z,55.41
2018-09-30T13:24:06.568Z,55.15
2018-09-30T13:26:33.454Z,55.05
2018-09-30T13:29:00.337Z,54.68
2018-09-30T13:31:27.216Z,55.05
2018-09-30T13:33:54.105Z,55.51
2018-09-30T13:36:21.002Z,55.34
2018-09-30T13:38:48.208Z,55.50
2018-09-30T13:41:15.218Z,54.96
2018-09-30T13:43:42.037Z,55.70
2018-09-30T13:46:08.980Z,55.21
2018-09-30T13:48:35.841Z,54.83
2018-09-30T13:51:02.740Z,55.01
2018-09-30T13:53:29.644Z,55.77
2018-09-30T13:55:56.529Z,55.52
2018-09-30T13:58:23.416Z,54.89
2018-09-30T14:00:50.325Z,54.98
2018-09-30T14:03:17.227Z,55.22
2018-09-30T14:05:44.119Z,55.73
2018-09-30T14:08:11.026Z,55.48
2018-09-30T14:10:37.949Z,55.33
2018-09-30T14:13:04.845Z,55.29
2018-09-30T14:15:31.744Z,55.04
2018-09-30T14:17:58.642Z,55.13
2018-09-30T14:20:25.551Z,55.26
2018-09-30T14:22:52.438Z,55.26
2018-09-30T14:25:19.324Z,55.47
2018-09-30T14:27:46.220Z,55.70
2018-09-30T14:30:13.144Z,55.96
2018-09-30T14:32:40.038Z,55.31
2018-09-30T14:35:06.938Z,55.67
2018-09-30T14:37:33.829Z,55.92
2018-09-30T14:40:01.093Z,55.14
2018-09-30T14:42:28.005Z,56.01
2018-09-30T14:44:55.057Z,55.77
2018-09-30T14:47:21.954Z,55.26
2018-09-30T14:49:48.861Z,55.56
2018-09-30T14:52:15.774Z,56.07
2018-09-30T14:54:42.652Z,56.06
2018-09-30T14:57:09.537Z,55.46
2018-09-30T14:59:36.463Z,55.39
2018-09-30T15:02:03.375Z,56.34
2018-09-30T15:04:30.365Z,56.12
2018-09-30T15:06:57.478Z,55.67
2018-09-30T15:09:24.365Z,56.22
2018-09-30T15:11:51.253Z,55.47
2018-09-30T15:14:18.171Z,56.30
2018-09-30T15:16:45.154Z,55.72
2018-09-30T15:19:12.082Z,56.23
2018-09-30T15:21:39.009Z,55.88
2018-09-30T15:24:05.904Z,56.22
2018-09-30T15:26:32.793Z,55.89
2018-09-30T15:28:59.685Z,56.48
2018-09-30T15:31:26.601Z,56.46
2018-09-30T15:33:53.521Z,56.49
2018-09-30T15:36:20.404Z,56.47
2018-09-30T15:38:47.865Z,56.54
2018-09-30T15:41:14.744Z,56.57
2018-09-30T15:43:41.633Z,56.19
2018-09-30T15:46:08.524Z,56.50
2018-09-30T15:48:35.437Z,56.87
2018-09-30T15:51:02.350Z,56.55
2018-09-30T15:53:29.257Z,56.24
2018-09-30T15:55:56.141Z,56.66
2018-09-30T15:58:23.030Z,56.76
2018-09-30T16:00:49.922Z,56.32
2018-09-30T16:03:16.874Z,56.96
2018-09-30T16:05:43.790Z,56.85
2018-09-30T16:08:11.118Z,56.56
2018-09-30T16:10:38.088Z,56.89
2018-09-30T16:13:04.985Z,56.19
2018-09-30T16:15:31.886Z,56.38
2018-09-30T16:17:58.765Z,56.55
2018-09-30T16:20:25.654Z,56.97
2018-09-30T16:22:52.600Z,56.75
2018-09-30T16:25:19.476Z,57.41
2018-09-30T16:27:46.411Z,56.58
2018-09-30T16:30:13.334Z,56.78
2018-09-30T16:32:40.231Z,56.53
2018-09-30T16:35:07.185Z,56.74
2018-09-30T16:37:34.033Z,56.69
2018-09-30T16:40:00.921Z,56.54
2018-09-30T16:42:27.809Z,57.42
2018-09-30T16:44:54.726Z,56.86
2018-09-30T16:47:21.619Z,57.21
2018-09-30T16:49:48.738Z,56.93
2018-09-30T16:52:15.637Z,56.62
2018-09-30T16:54:42.521Z,56.86
2018-09-30T16:57:09.423Z,56.90
2018-09-30T16:59:36.321Z,57.06
2018-09-30T17:02:03.233Z,57.28
2018-09-30T17:04:30.142Z,56.87
2018-09-30T17:06:57.030Z,57.01
2018-09-30T17:09:23.924Z,56.98
2018-09-30T17:11:50.809Z,56.80
2018-09-30T17:14:17.765Z,57.36
2018-09-30T17:16:44.649Z,57.51
2018-09-30T17:19:11.574Z,57.55
2018-09-30T17:21:38.478Z,56.89
2018-09-30T17:24:05.361Z,57.32
2018-09-30T17:26:32.249Z,57.18
2018-09-30T17:28:59.146Z,57.05
2018-09-30T17:31:26.046Z,57.31
2018-09-30T17:33:52.934Z,57.02
2018-09-30T17:36:19.832Z,56.88
2018-09-30T17:38:46.730Z,57.37
2018-09-30T17:41:13.616Z,56.75
2018-09-30T17:43:40.509Z,57.70
2018-09-30T17:46:07.391Z,57.59
2018-09-30T17:48:34.305Z,57.39
2018-09-30T17:51:01.258Z,56.85
2018-09-30T17:53:28.140Z,56.77
2018-09-30T17:55:55.016Z,57.06
2018-09-30T17:58:21.902Z,57.20
2018-09-30T18:00:48.849Z,57.17
2018-09-30T18:03:15.737Z,56.90
2018-09-30T18:05:42.616Z,57.26
2018-09-30T18:08:09.510Z,57.09
2018-09-30T18:10:36.429Z,57.64
2018-09-30T18:13:03.337Z,57.16
2018-09-30T18:15:30.235Z,57.39
2018-09-30T18:17:57.130Z,57.71
2018-09-30T18:20:24.047Z,56.91
2018-09-30T18:22:51.120Z,57.04
2018-09-30T18:25:18.011Z,57.64
2018-09-30T18:27:44.910Z,56.92
2018-09-30T18:30:11.925Z,57.01
2018-09-30T18:32:38.808Z,57.44
2018-09-30T18:35:05.711Z,56.84
2018-09-30T18:37:32.602Z,57.42
2018-09-30T18:39:59.556Z,57.75
2018-09-30T18:42:26.389Z,57.24
2018-09-30T18:44:53.271Z,56.83
2018-09-30T18:47:20.181Z,57.59
2018-09-30T18:49:47.085Z,57.08
2018-09-30T18:52:13.965Z,57.13
2018-09-30T18:54:40.850Z,57.72
2018-09-30T18:57:07.736Z,56.91
2018-09-30T18:59:34.640Z,56.92
2018-09-30T19:02:01.532Z,57.10
2018-09-30T19:04:28.453Z,56.94
2018-09-30T19:06:55.320Z,56.79
2018-09-30T19:09:22.206Z,57.62
2018-09-30T19:11:49.115Z,56.96
2018-09-30T19:14:16.015Z,57.64
2018-09-30T19:16:42.902Z,57.06
2018-09-30T19:19:09.851Z,57.48
2018-09-30T19:21:36.697Z,57.19
2018-09-30T19:24:03.581Z,57.60
2018-09-30T19:26:30.501Z,57.46
2018-09-30T19:28:57.404Z,57.28
2018-09-30T19:31:24.298Z,57.41
2018-09-30T19:33:51.189Z,57.69
2018-09-30T19:36:18.090Z,57.72
2018-09-30T19:38:44.980Z,57.41
2018-09-30T19:41:11.873Z,57.71
2018-09-30T19:43:38.809Z,57.06
2018-09-30T19:46:05.696Z,56.92
2018-09-30T19:48:32.582Z,57.73
2018-09-30T19:50:59.569Z,57.57
2018-09-30T19:53:26.457Z,57.03
2018-09-30T19:55:53.382Z,57.58
2018-09-30T19:58:20.279Z,57.47
2018-09-30T20:00:47.295Z,56.86
2018-09-30T20:03:14.203Z,57.46
2018-09-30T20:05:41.106Z,57.11
2018-09-30T20:08:08.030Z,57.24
2018-09-30T20:10:34.995Z,56.83
2018-09-30T20:13:01.865Z,56.87
2018-09-30T20:15:28.765Z,57.58
2018-09-30T20:17:55.661Z,57.39
2018-09-30T20:20:22.549Z,57.74
2018-09-30T20:22:49.469Z,56.94
2018-09-30T20:25:16.363Z,57.15
2018-09-30T20:27:43.257Z,57.01
2018-09-30T20:30:10.160Z,57.63
2018-09-30T20:32:37.047Z,57.12
2018-09-30T20:35:03.940Z,57.28
2018-09-30T20:37:30.830Z,57.84
2018-09-30T20:39:57.731Z,56.81
2018-09-30T20:42:24.629Z,56.87
2018-09-30T20:44:51.521Z,57.49
2018-09-30T20:47:18.400Z,57.02
2018-09-30T20:49:45.312Z,57.25
2018-09-30T20:52:12.204Z,57.50
2018-09-30T20:54:39.089Z,57.26
2018-09-30T20:57:05.990Z,57.17
2018-09-30T20:59:32.893Z,56.89
2018-09-30T21:01:59.791Z,57.56
2018-09-30T21:04:26.681Z,57.60
2018-09-30T21:06:53.610Z,57.57
2018-09-30T21:09:21.588Z,56.88
2018-09-30T21:11:48.473Z,57.53
2018-09-30T21:14:15.465Z,57.52
2018-09-30T21:16:42.352Z,57.73
2018-09-30T21:19:09.293Z,56.97
2018-09-30T21:21:36.198Z,56.87
2018-09-30T21:24:03.081Z,57.66
2018-09-30T21:26:29.989Z,56.85
2018-09-30T21:28:56.886Z,57.03
2018-09-30T21:31:23.782Z,57.19
2018-09-30T21:33:50.677Z,57.02
2018-09-30T21:36:17.662Z,57.51
2018-09-30T21:38:44.573Z,57.59
2018-09-30T21:41:11.473Z,57.37
2018-09-30T21:43:38.373Z,56.93
2018-09-30T21:46:05.262Z,57.02
2018-09-30T21:48:32.204Z,56.96
2018-09-30T21:50:59.081Z,57.10
2018-09-30T21:53:25.964Z,56.84
2018-09-30T21:55:52.874Z,57.42
2018-09-30T21:58:19.764Z,57.10
2018-09-30T22:00:52.044Z,57.76
2018-09-30T22:03:18.937Z,57.51
2018-09-30T22:05:45.833Z,57.76
2018-09-30T22:08:12.742Z,57.23
2018-09-30T22:10:41.071Z,57.54
2018-09-30T22:13:08.318Z,57.22
2018-09-30T22:15:35.375Z,57.47
2018-09-30T22:18:02.369Z,57.27
2018-09-30T22:20:29.277Z,57.39
2018-09-30T22:22:56.171Z,57.47
2018-09-30T22:25:23.078Z,57.50
2018-09-30T22:27:49.981Z,57.14
2018-09-30T22:30:16.856Z,57.58
2018-09-30T22:32:43.768Z,57.84
2018-09-30T22:35:10.925Z,57.64
2018-09-30T22:37:37.808Z,57.58
2018-09-30T22:40:04.718Z,57.64
2018-09-30T22:42:31.626Z,57.62
2018-09-30T22:44:58.513Z,57.15
2018-09-30T22:47:25.393Z,56.82
2018-09-30T22:49:52.366Z,57.38
2018-09-30T22:52:19.264Z,57.18
2018-09-30T22:54:46.158Z,56.94
2018-09-30T22:57:13.071Z,56.90
2018-09-30T22:59:39.961Z,57.37
2018-09-30T23:02:07.167Z,56.94
2018-09-30T23:04:34.102Z,57.29
2018-09-30T23:07:01.004Z,57.52
2018-09-30T23:09:27.902Z,57.54
2018-09-30T23:11:54.789Z,56.93
2018-09-30T23:14:21.694Z,56.89
2018-09-30T23:16:48.580Z,57.55
2018-09-30T23:19:15.490Z,57.51
2018-09-30T23:21:42.402Z,57.21
2018-09-30T23:24:09.280Z,56.95
2018-09-30T23:26:36.169Z,56.94
2018-09-30T23:29:03.076Z,57.05
2018-09-30T23:31:29.970Z,57.77
2018-09-30T23:33:56.861Z,57.06
2018-09-30T23:36:23.758Z,57.71
2018-09-30T23:38:50.657Z,57.55
2018-09-30T23:41:17.582Z,57.19
2018-09-30T23:43:44.510Z,57.69
2018-09-30T23:46:11.385Z,57.15
2018-09-30T23:48:38.274Z,57.00
2018-09-30T23:51:05.412Z,56.92
2018-09-30T23:53:32.306Z,57.72
2018-09-30T23:55:59.196Z,57.39
2018-09-30T23:58:26.081Z,57.11
